San Angelo's Hourly Summary for Friday, May 11, 2018
Hour Temp
(f)
RH
(%)
Solar Rad.
(MJ/m2)
Rainfall
(in)
Wind
(mph)
5/11/2018 12:00 AM 77 41 0 0 12.23
5/11/2018 1:00 AM 75 43 0 0 11.61
5/11/2018 2:00 AM 74 45 0 0 13.16
5/11/2018 3:00 AM 72 48 0 0 11.69
5/11/2018 4:00 AM 71 54 0 0 10.23
5/11/2018 5:00 AM 70 59 0 0 11.13
5/11/2018 6:00 AM 68 65 0 0 10.83
5/11/2018 7:00 AM 67 71 0.01 0 9.9
5/11/2018 8:00 AM 67 74 0.33 0 10.57
5/11/2018 9:00 AM 69 65 1.02 0 11.33
5/11/2018 10:00 AM 72 54 1.72 0 11.91
5/11/2018 11:00 AM 76 44 2.38 0 13.54
5/11/2018 12:00 PM 79 37 2.77 0 15.7
5/11/2018 1:00 PM 82 37 3.11 0 15.83
5/11/2018 2:00 PM 84 36 3.27 0 15.62
5/11/2018 3:00 PM 86 35 3.15 0 14.76
5/11/2018 4:00 PM 88 32 2.89 0 14.58
5/11/2018 5:00 PM 89 31 2.4 0 13.82
5/11/2018 6:00 PM 89 31 1.77 0 14.51
5/11/2018 7:00 PM 89 31 1.08 0 13.56
5/11/2018 8:00 PM 87 33 0.4 0 12.3
5/11/2018 9:00 PM 84 36 0.05 0 11.94
5/11/2018 10:00 PM 82 40 0 0 9.75
5/11/2018 11:00 PM 79 44 0 0 7.83
Data Summary 78 45 26.35 0.00 12.43